Scroll down
FLIGHT INFORMATION
American Airlines

AAL5110

At Arrival Gate

KORD
 KBZN
DATE: 2022-06-03
GATE: M12
GATE DEPARTURE: 20:24
TAKEOFF: 20:36
DATE: 2022-06-03
GATE:  -
LANDING: 23:13
GATE ARRIVAL: 23:20
FLIGHT DATA
Crew: 
Speed: 
494 kts
Altitude: 
40,011 ft
Stage Length: 
1,027.5 nm
Block Time: 
2.8 hrs
Flight Time: 
2.6 hrs
Fuel Used: 
38,294 lb
Cleared Route: KORD MYKIE MONNY IANNA FSD DPR SUBKY LVM BZN LVM RW30
TRACK DATA
50,000 ft 1,000 kts
AIRCRAFT INFO AND CUMULATIVE STATS
Aircraft Type: 
B772
Registration: 
SELCAL: 
ABGK
MSN/LN: 
30254 / 289
Operator: 
Total Flights: 
6
Total Block Time: 
28.6 hrs
Total Flight Time: 
27.1 hrs
Total Fuel Used: 
393,265 lb
DATALINK LOG | Newest first | Current as of: 2022-09-27 07:48:21
LABEL SEQUENCE CONTENT Dn/Up
QD232723:20 14.5▼ Dn
QC162023:13▼ Dn
2U3531KBZN 032224Z 10008KT 10SM FEW050 SCT070 OVC100 13/10 A2988 RMK AO2 LTG DSNT NE-SE RAE22 TSE02 P0003 T01280100▲ Up
2S3642KBZN▼ Dn
GA1935GATE PENDING▲ Up
GR1925KBZN 23:09 HI-VAL NO DIPL/VIP NO▼ Dn
2U4403KBZN 032056Z AUTO 30009KT 10SM FEW110 21/08 A2983 RMK AO2 LTG DSNT SE-SW RAB19E32 SLP078 P0000 60000 T02110083 56011▲ Up
2S4653KBZN▼ Dn
QB384920:36▼ Dn
QA263720:24 53▼ Dn
A32032CLEARED TO KBZN VIA MYKIE MONNY IANNA FSD J16 DPR SUBKY LVM BZN. SQUAWK 6412.▲ Up
Q01931[LINK ACK]▲ Up
Q01931[LINK TEST]▼ Dn


AIRCRAFT HISTORY
FLIGHT DATE FLIGHT NO. ORIGIN DESTINATION CLEARED ROUTE BLOCK TIME FLIGHT TIME FUEL USED PILOT
2022-06-03AAL5110KORD KBZN KORD MYKIE MONNY IANNA FSD DPR SUBKY LVM BZN LVM RW302.8 hrs2.6 hrs38,294 lbPete L.
2021-07-11AAL1969KPHX KORD KPHX SPRKY GOALY POCCK MRBIL YOTES JARPA MYRRS SAAYY BENNR JBAGS BHAWK STNLE CUUPP CHMPN CLSBY FYTTE MOTRR COGSS MADII SOOLU KURKK VULCN HIMGO RRUDA RW10C3.3 hrs3 hrs43,818 lbGeorge
2021-05-23AAL5226KRDU KPHX KRDU CATAR WLFFF SHPRD VXV ARG IFI ABQ ZUN DOJOE SLIDR TINIZ PAYSO EAGUL HOMRR BOHTX GEENO QUENY HINEY OBASE JAMIL RW084.1 hrs3.8 hrs55,008 lbPete L.
2021-05-21AAL5826KSJC KRDU KSJC 30R18 SUNOL LIN OAL ILC MLF SAKES JNC GLENO DBL MCI DRIVL WELTS STL BOSIE ELIOE IMPEL IIU GSO HEAVE RW05L4.7 hrs4.5 hrs63,352 lbPete L.
2021-04-14AAL2834KDFW KSJC KDFW HAZKL TULUY HUNNT TYGGR DBLSS HRPER HULZE FTI ESPAN RGINA RSK BCE ILC KNGRY GYLET STUBL RAZRR OUCHH NIKKT GOTEE SHIKK TRCOT GGUGL GAARY EDMND JESEN HITIR RW12R3.5 hrs3.1 hrs45,596 lbPete L.
2021-03-25AAL9717EGLL KDFW EGLL CPT KENET UGNUS LANON BADSI ABLIN IRKUM LIPGO PIKIL 5620N 5630N 5440N 5150N ALLRY TOPPS CABCI NIPPY SYR GEE JHW ROD TTH FAM RZC JONEZ KDFW10.2 hrs10 hrs147,197 lbRyan Syferd